sensor_id;sensor_type;location;lat;lon;timestamp;temperature;humidity
16404;DHT22;8311;50.158;8.642;2024-03-06T00:01:48;20.60;48.10
16404;DHT22;8311;50.158;8.642;2024-03-06T00:04:42;20.60;48.10
16404;DHT22;8311;50.158;8.642;2024-03-06T00:07:38;20.60;48.10
16404;DHT22;8311;50.158;8.642;2024-03-06T00:10:32;20.60;48.00
16404;DHT22;8311;50.158;8.642;2024-03-06T00:13:25;20.60;48.10
16404;DHT22;8311;50.158;8.642;2024-03-06T00:16:20;20.60;48.00
16404;DHT22;8311;50.158;8.642;2024-03-06T00:19:13;20.60;48.00
16404;DHT22;8311;50.158;8.642;2024-03-06T00:22:07;20.60;48.00
16404;DHT22;8311;50.158;8.642;2024-03-06T00:25:03;20.60;48.00
16404;DHT22;8311;50.158;8.642;2024-03-06T00:27:57;20.60;48.00
16404;DHT22;8311;50.158;8.642;2024-03-06T00:30:50;20.60;48.00
16404;DHT22;8311;50.158;8.642;2024-03-06T00:33:43;20.60;48.00
16404;DHT22;8311;50.158;8.642;2024-03-06T00:36:36;20.60;47.90
16404;DHT22;8311;50.158;8.642;2024-03-06T00:39:29;20.60;48.00
16404;DHT22;8311;50.158;8.642;2024-03-06T00:42:23;20.60;47.90
16404;DHT22;8311;50.158;8.642;2024-03-06T00:45:17;20.60;47.90
16404;DHT22;8311;50.158;8.642;2024-03-06T00:48:10;20.60;47.90
16404;DHT22;8311;50.158;8.642;2024-03-06T00:51:04;20.60;47.90
16404;DHT22;8311;50.158;8.642;2024-03-06T00:53:58;20.60;47.90
16404;DHT22;8311;50.158;8.642;2024-03-06T00:56:52;20.60;47.90
16404;DHT22;8311;50.158;8.642;2024-03-06T00:59:47;20.60;47.90
16404;DHT22;8311;50.158;8.642;2024-03-06T01:02:43;20.60;47.90
16404;DHT22;8311;50.158;8.642;2024-03-06T01:05:36;20.60;47.80
16404;DHT22;8311;50.158;8.642;2024-03-06T01:08:29;20.60;47.80
16404;DHT22;8311;50.158;8.642;2024-03-06T01:11:23;20.60;47.80
16404;DHT22;8311;50.158;8.642;2024-03-06T01:14:18;20.60;47.80
16404;DHT22;8311;50.158;8.642;2024-03-06T01:17:13;20.60;47.80
16404;DHT22;8311;50.158;8.642;2024-03-06T01:20:08;20.60;47.80
16404;DHT22;8311;50.158;8.642;2024-03-06T01:23:01;20.60;47.80
16404;DHT22;8311;50.158;8.642;2024-03-06T01:25:54;20.60;47.70
16404;DHT22;8311;50.158;8.642;2024-03-06T01:28:47;20.60;47.80
16404;DHT22;8311;50.158;8.642;2024-03-06T01:31:40;20.60;47.70
16404;DHT22;8311;50.158;8.642;2024-03-06T01:34:35;20.60;47.70
16404;DHT22;8311;50.158;8.642;2024-03-06T01:37:29;20.60;47.70
16404;DHT22;8311;50.158;8.642;2024-03-06T01:40:22;20.60;47.70
16404;DHT22;8311;50.158;8.642;2024-03-06T01:43:22;20.60;47.70
16404;DHT22;8311;50.158;8.642;2024-03-06T01:46:15;20.60;47.70
16404;DHT22;8311;50.158;8.642;2024-03-06T01:49:12;20.60;47.70
16404;DHT22;8311;50.158;8.642;2024-03-06T01:52:19;20.60;47.70
16404;DHT22;8311;50.158;8.642;2024-03-06T01:55:14;20.60;47.70
16404;DHT22;8311;50.158;8.642;2024-03-06T01:58:08;20.60;47.70
16404;DHT22;8311;50.158;8.642;2024-03-06T02:01:03;20.60;47.70
16404;DHT22;8311;50.158;8.642;2024-03-06T02:03:57;20.60;47.70
16404;DHT22;8311;50.158;8.642;2024-03-06T02:06:51;20.60;47.70
16404;DHT22;8311;50.158;8.642;2024-03-06T02:09:46;20.60;47.60
16404;DHT22;8311;50.158;8.642;2024-03-06T02:12:41;20.60;47.60
16404;DHT22;8311;50.158;8.642;2024-03-06T02:15:34;20.60;47.60
16404;DHT22;8311;50.158;8.642;2024-03-06T02:18:29;20.60;47.60
16404;DHT22;8311;50.158;8.642;2024-03-06T02:21:25;20.60;47.60
16404;DHT22;8311;50.158;8.642;2024-03-06T02:24:18;20.60;47.60
16404;DHT22;8311;50.158;8.642;2024-03-06T02:27:11;20.60;47.60
16404;DHT22;8311;50.158;8.642;2024-03-06T02:30:05;20.60;47.60
16404;DHT22;8311;50.158;8.642;2024-03-06T02:32:58;20.60;47.60
16404;DHT22;8311;50.158;8.642;2024-03-06T02:35:52;20.60;47.60
16404;DHT22;8311;50.158;8.642;2024-03-06T02:38:47;20.60;47.50
16404;DHT22;8311;50.158;8.642;2024-03-06T02:41:41;20.60;47.50
16404;DHT22;8311;50.158;8.642;2024-03-06T02:44:34;20.60;47.50
16404;DHT22;8311;50.158;8.642;2024-03-06T02:47:29;20.60;47.50
16404;DHT22;8311;50.158;8.642;2024-03-06T02:50:22;20.60;47.50
16404;DHT22;8311;50.158;8.642;2024-03-06T02:53:17;20.60;47.50
16404;DHT22;8311;50.158;8.642;2024-03-06T02:56:17;20.60;47.50
16404;DHT22;8311;50.158;8.642;2024-03-06T02:59:10;20.60;47.50
16404;DHT22;8311;50.158;8.642;2024-03-06T03:02:03;20.60;47.50
16404;DHT22;8311;50.158;8.642;2024-03-06T03:04:59;20.60;47.50
16404;DHT22;8311;50.158;8.642;2024-03-06T03:07:53;20.60;47.70
16404;DHT22;8311;50.158;8.642;2024-03-06T03:10:47;20.60;47.50
16404;DHT22;8311;50.158;8.642;2024-03-06T03:13:42;20.60;47.40
16404;DHT22;8311;50.158;8.642;2024-03-06T03:16:35;20.60;47.40
16404;DHT22;8311;50.158;8.642;2024-03-06T03:19:28;20.60;47.40
16404;DHT22;8311;50.158;8.642;2024-03-06T03:22:22;20.60;47.40
16404;DHT22;8311;50.158;8.642;2024-03-06T03:25:16;20.60;47.40
16404;DHT22;8311;50.158;8.642;2024-03-06T03:28:09;20.60;47.40
16404;DHT22;8311;50.158;8.642;2024-03-06T03:31:04;20.60;47.40
16404;DHT22;8311;50.158;8.642;2024-03-06T03:33:58;20.60;47.40
16404;DHT22;8311;50.158;8.642;2024-03-06T03:36:51;20.60;47.40
16404;DHT22;8311;50.158;8.642;2024-03-06T03:39:44;20.60;47.40
16404;DHT22;8311;50.158;8.642;2024-03-06T03:42:38;20.60;47.30
16404;DHT22;8311;50.158;8.642;2024-03-06T03:45:32;20.60;47.40
16404;DHT22;8311;50.158;8.642;2024-03-06T03:48:27;20.60;47.30
16404;DHT22;8311;50.158;8.642;2024-03-06T03:51:20;20.60;47.30
16404;DHT22;8311;50.158;8.642;2024-03-06T03:54:13;20.60;47.30
16404;DHT22;8311;50.158;8.642;2024-03-06T03:57:07;20.60;47.40
16404;DHT22;8311;50.158;8.642;2024-03-06T04:00:00;20.50;47.70
16404;DHT22;8311;50.158;8.642;2024-03-06T04:02:53;20.60;47.60
16404;DHT22;8311;50.158;8.642;2024-03-06T04:05:48;20.60;47.50
16404;DHT22;8311;50.158;8.642;2024-03-06T04:08:42;20.60;47.50
16404;DHT22;8311;50.158;8.642;2024-03-06T04:11:36;20.50;47.40
16404;DHT22;8311;50.158;8.642;2024-03-06T04:14:29;20.60;47.50
16404;DHT22;8311;50.158;8.642;2024-03-06T04:17:22;20.60;47.40
16404;DHT22;8311;50.158;8.642;2024-03-06T04:20:16;20.60;47.40
16404;DHT22;8311;50.158;8.642;2024-03-06T04:23:11;20.50;47.40
16404;DHT22;8311;50.158;8.642;2024-03-06T04:26:04;20.60;47.40
16404;DHT22;8311;50.158;8.642;2024-03-06T04:28:58;20.60;47.40
16404;DHT22;8311;50.158;8.642;2024-03-06T04:31:51;20.60;47.40
16404;DHT22;8311;50.158;8.642;2024-03-06T04:34:45;20.60;47.30
16404;DHT22;8311;50.158;8.642;2024-03-06T04:37:39;20.60;47.30
16404;DHT22;8311;50.158;8.642;2024-03-06T04:40:35;20.60;47.30
16404;DHT22;8311;50.158;8.642;2024-03-06T04:43:27;20.60;47.30
16404;DHT22;8311;50.158;8.642;2024-03-06T04:46:22;20.60;47.30
16404;DHT22;8311;50.158;8.642;2024-03-06T04:49:15;20.60;47.30
16404;DHT22;8311;50.158;8.642;2024-03-06T04:52:08;20.60;47.30
16404;DHT22;8311;50.158;8.642;2024-03-06T04:55:01;20.60;47.20
16404;DHT22;8311;50.158;8.642;2024-03-06T04:57:55;20.60;47.20
16404;DHT22;8311;50.158;8.642;2024-03-06T05:00:48;20.60;47.30
16404;DHT22;8311;50.158;8.642;2024-03-06T05:03:41;20.60;47.20
16404;DHT22;8311;50.158;8.642;2024-03-06T05:06:52;20.60;47.20
16404;DHT22;8311;50.158;8.642;2024-03-06T05:10:04;20.60;47.20
16404;DHT22;8311;50.158;8.642;2024-03-06T05:13:18;20.60;47.20
16404;DHT22;8311;50.158;8.642;2024-03-06T05:16:28;20.60;47.20
16404;DHT22;8311;50.158;8.642;2024-03-06T05:19:39;20.60;47.20
16404;DHT22;8311;50.158;8.642;2024-03-06T05:22:51;20.60;47.20
16404;DHT22;8311;50.158;8.642;2024-03-06T05:26:02;20.60;47.20
16404;DHT22;8311;50.158;8.642;2024-03-06T05:29:14;20.60;47.20
16404;DHT22;8311;50.158;8.642;2024-03-06T05:32:24;20.60;47.20
16404;DHT22;8311;50.158;8.642;2024-03-06T05:35:37;20.60;47.20
16404;DHT22;8311;50.158;8.642;2024-03-06T05:38:48;20.60;47.10
16404;DHT22;8311;50.158;8.642;2024-03-06T05:42:00;20.60;47.10
16404;DHT22;8311;50.158;8.642;2024-03-06T05:45:14;20.60;47.10
16404;DHT22;8311;50.158;8.642;2024-03-06T05:48:25;20.60;47.10
16404;DHT22;8311;50.158;8.642;2024-03-06T05:51:36;20.60;47.10
16404;DHT22;8311;50.158;8.642;2024-03-06T05:54:48;20.60;47.10
16404;DHT22;8311;50.158;8.642;2024-03-06T05:58:00;20.60;47.10
16404;DHT22;8311;50.158;8.642;2024-03-06T06:01:05;20.60;47.10
16404;DHT22;8311;50.158;8.642;2024-03-06T06:03:58;20.60;47.40
16404;DHT22;8311;50.158;8.642;2024-03-06T06:06:55;20.60;47.60
16404;DHT22;8311;50.158;8.642;2024-03-06T06:09:48;20.60;47.70
16404;DHT22;8311;50.158;8.642;2024-03-06T06:12:42;20.60;47.80
16404;DHT22;8311;50.158;8.642;2024-03-06T06:15:35;20.60;47.90
16404;DHT22;8311;50.158;8.642;2024-03-06T06:18:30;20.60;47.90
16404;DHT22;8311;50.158;8.642;2024-03-06T06:21:23;20.50;47.90
16404;DHT22;8311;50.158;8.642;2024-03-06T06:24:16;20.50;47.70
16404;DHT22;8311;50.158;8.642;2024-03-06T06:27:09;20.50;46.20
16404;DHT22;8311;50.158;8.642;2024-03-06T06:30:03;20.40;44.00
16404;DHT22;8311;50.158;8.642;2024-03-06T06:32:58;20.40;45.30
16404;DHT22;8311;50.158;8.642;2024-03-06T06:35:55;20.30;44.00
16404;DHT22;8311;50.158;8.642;2024-03-06T06:38:49;20.30;44.30
16404;DHT22;8311;50.158;8.642;2024-03-06T06:41:44;20.40;44.30
16404;DHT22;8311;50.158;8.642;2024-03-06T06:44:37;20.40;44.50
16404;DHT22;8311;50.158;8.642;2024-03-06T06:47:31;20.40;44.60
16404;DHT22;8311;50.158;8.642;2024-03-06T06:50:23;20.40;45.00
16404;DHT22;8311;50.158;8.642;2024-03-06T06:53:21;20.40;45.20
16404;DHT22;8311;50.158;8.642;2024-03-06T06:56:13;20.40;45.10
16404;DHT22;8311;50.158;8.642;2024-03-06T06:59:07;20.40;45.20
16404;DHT22;8311;50.158;8.642;2024-03-06T07:02:00;20.40;45.40
16404;DHT22;8311;50.158;8.642;2024-03-06T07:04:54;20.40;45.40
16404;DHT22;8311;50.158;8.642;2024-03-06T07:07:46;20.40;45.50
16404;DHT22;8311;50.158;8.642;2024-03-06T07:10:46;20.40;45.70
16404;DHT22;8311;50.158;8.642;2024-03-06T07:13:39;20.40;45.70
16404;DHT22;8311;50.158;8.642;2024-03-06T07:16:33;20.40;45.80
16404;DHT22;8311;50.158;8.642;2024-03-06T07:19:25;20.40;45.80
16404;DHT22;8311;50.158;8.642;2024-03-06T07:22:20;20.40;45.90
16404;DHT22;8311;50.158;8.642;2024-03-06T07:25:12;20.50;46.10
16404;DHT22;8311;50.158;8.642;2024-03-06T07:28:08;20.50;46.10
16404;DHT22;8311;50.158;8.642;2024-03-06T07:31:02;20.40;46.10
16404;DHT22;8311;50.158;8.642;2024-03-06T07:33:56;20.40;46.10
16404;DHT22;8311;50.158;8.642;2024-03-06T07:36:48;20.40;46.20
16404;DHT22;8311;50.158;8.642;2024-03-06T07:39:42;20.50;46.30
16404;DHT22;8311;50.158;8.642;2024-03-06T07:42:35;20.50;46.30
16404;DHT22;8311;50.158;8.642;2024-03-06T07:45:32;20.50;46.40
16404;DHT22;8311;50.158;8.642;2024-03-06T07:48:24;20.50;46.30
16404;DHT22;8311;50.158;8.642;2024-03-06T07:51:18;20.50;46.40
16404;DHT22;8311;50.158;8.642;2024-03-06T07:54:11;20.50;46.40
16404;DHT22;8311;50.158;8.642;2024-03-06T07:57:04;20.50;46.50
16404;DHT22;8311;50.158;8.642;2024-03-06T07:59:58;20.50;46.50
16404;DHT22;8311;50.158;8.642;2024-03-06T08:02:52;20.50;46.50
16404;DHT22;8311;50.158;8.642;2024-03-06T08:05:45;20.50;46.50
16404;DHT22;8311;50.158;8.642;2024-03-06T08:08:40;20.50;46.50
16404;DHT22;8311;50.158;8.642;2024-03-06T08:11:34;20.50;46.50
16404;DHT22;8311;50.158;8.642;2024-03-06T08:14:27;20.50;46.60
16404;DHT22;8311;50.158;8.642;2024-03-06T08:17:21;20.50;47.20
16404;DHT22;8311;50.158;8.642;2024-03-06T08:20:19;20.50;46.60
16404;DHT22;8311;50.158;8.642;2024-03-06T08:23:13;20.50;46.70
16404;DHT22;8311;50.158;8.642;2024-03-06T08:26:06;20.50;46.70
16404;DHT22;8311;50.158;8.642;2024-03-06T08:28:59;20.50;46.70
16404;DHT22;8311;50.158;8.642;2024-03-06T08:31:51;20.50;46.70
16404;DHT22;8311;50.158;8.642;2024-03-06T08:34:50;20.50;46.80
16404;DHT22;8311;50.158;8.642;2024-03-06T08:37:45;20.50;46.80
16404;DHT22;8311;50.158;8.642;2024-03-06T08:40:39;20.50;46.80
16404;DHT22;8311;50.158;8.642;2024-03-06T08:43:37;20.50;46.80
16404;DHT22;8311;50.158;8.642;2024-03-06T08:46:30;20.50;46.80
16404;DHT22;8311;50.158;8.642;2024-03-06T08:49:24;20.50;46.80
16404;DHT22;8311;50.158;8.642;2024-03-06T08:52:17;20.50;46.80
16404;DHT22;8311;50.158;8.642;2024-03-06T08:55:11;20.50;46.90
16404;DHT22;8311;50.158;8.642;2024-03-06T08:58:05;20.50;46.90
16404;DHT22;8311;50.158;8.642;2024-03-06T09:00:57;20.50;46.90
16404;DHT22;8311;50.158;8.642;2024-03-06T09:03:52;20.50;46.90
16404;DHT22;8311;50.158;8.642;2024-03-06T09:06:46;20.50;46.90
16404;DHT22;8311;50.158;8.642;2024-03-06T09:09:40;20.50;46.90
16404;DHT22;8311;50.158;8.642;2024-03-06T09:12:36;20.50;46.90
16404;DHT22;8311;50.158;8.642;2024-03-06T09:15:29;20.50;47.00
16404;DHT22;8311;50.158;8.642;2024-03-06T09:18:23;20.50;47.00
16404;DHT22;8311;50.158;8.642;2024-03-06T09:21:18;20.50;46.90
16404;DHT22;8311;50.158;8.642;2024-03-06T09:24:12;20.50;47.00
16404;DHT22;8311;50.158;8.642;2024-03-06T09:27:05;20.60;47.00
16404;DHT22;8311;50.158;8.642;2024-03-06T09:29:59;20.50;46.90
16404;DHT22;8311;50.158;8.642;2024-03-06T09:32:53;20.50;47.00
16404;DHT22;8311;50.158;8.642;2024-03-06T09:35:47;20.50;47.00
16404;DHT22;8311;50.158;8.642;2024-03-06T09:38:40;20.50;47.00
16404;DHT22;8311;50.158;8.642;2024-03-06T09:41:35;20.60;47.00
16404;DHT22;8311;50.158;8.642;2024-03-06T09:44:28;20.60;47.00
16404;DHT22;8311;50.158;8.642;2024-03-06T09:47:25;20.60;47.10
16404;DHT22;8311;50.158;8.642;2024-03-06T09:50:24;20.60;47.10
16404;DHT22;8311;50.158;8.642;2024-03-06T09:53:20;20.60;47.10
16404;DHT22;8311;50.158;8.642;2024-03-06T09:56:15;20.60;47.10
16404;DHT22;8311;50.158;8.642;2024-03-06T09:59:09;20.60;47.10
16404;DHT22;8311;50.158;8.642;2024-03-06T10:02:07;20.60;47.00
16404;DHT22;8311;50.158;8.642;2024-03-06T10:05:22;20.60;47.10
16404;DHT22;8311;50.158;8.642;2024-03-06T10:08:15;20.60;47.10
16404;DHT22;8311;50.158;8.642;2024-03-06T10:11:09;20.60;47.10
16404;DHT22;8311;50.158;8.642;2024-03-06T10:14:03;20.60;47.10
16404;DHT22;8311;50.158;8.642;2024-03-06T10:16:57;20.60;47.10
16404;DHT22;8311;50.158;8.642;2024-03-06T10:19:50;20.60;47.10
16404;DHT22;8311;50.158;8.642;2024-03-06T10:22:46;20.60;47.10
16404;DHT22;8311;50.158;8.642;2024-03-06T10:25:39;20.60;47.00
16404;DHT22;8311;50.158;8.642;2024-03-06T10:28:32;20.70;47.10
16404;DHT22;8311;50.158;8.642;2024-03-06T10:31:27;20.70;47.10
16404;DHT22;8311;50.158;8.642;2024-03-06T10:34:21;20.70;47.10
16404;DHT22;8311;50.158;8.642;2024-03-06T10:37:15;20.70;47.10
16404;DHT22;8311;50.158;8.642;2024-03-06T10:40:14;20.70;47.10
16404;DHT22;8311;50.158;8.642;2024-03-06T10:43:09;20.70;47.10
16404;DHT22;8311;50.158;8.642;2024-03-06T10:46:06;20.70;47.10
16404;DHT22;8311;50.158;8.642;2024-03-06T10:49:01;20.70;47.10
16404;DHT22;8311;50.158;8.642;2024-03-06T10:51:58;20.70;47.70
16404;DHT22;8311;50.158;8.642;2024-03-06T10:54:52;20.70;47.10
16404;DHT22;8311;50.158;8.642;2024-03-06T10:57:48;20.70;47.10
16404;DHT22;8311;50.158;8.642;2024-03-06T11:00:47;20.80;47.10
16404;DHT22;8311;50.158;8.642;2024-03-06T11:03:42;20.80;47.10
16404;DHT22;8311;50.158;8.642;2024-03-06T11:06:36;20.80;47.20
16404;DHT22;8311;50.158;8.642;2024-03-06T11:09:32;20.90;47.30
16404;DHT22;8311;50.158;8.642;2024-03-06T11:12:35;21.00;47.30
16404;DHT22;8311;50.158;8.642;2024-03-06T11:15:31;21.00;47.30
16404;DHT22;8311;50.158;8.642;2024-03-06T11:18:45;21.00;47.30
16404;DHT22;8311;50.158;8.642;2024-03-06T11:21:48;21.00;47.20
16404;DHT22;8311;50.158;8.642;2024-03-06T11:24:40;21.00;47.20
16404;DHT22;8311;50.158;8.642;2024-03-06T11:28:03;21.00;47.20
16404;DHT22;8311;50.158;8.642;2024-03-06T11:30:59;21.00;47.20
16404;DHT22;8311;50.158;8.642;2024-03-06T11:33:53;21.10;47.10
16404;DHT22;8311;50.158;8.642;2024-03-06T11:36:48;21.10;47.00
16404;DHT22;8311;50.158;8.642;2024-03-06T11:39:42;21.30;47.60
16404;DHT22;8311;50.158;8.642;2024-03-06T11:42:37;21.30;47.00
16404;DHT22;8311;50.158;8.642;2024-03-06T11:45:31;21.40;47.00
16404;DHT22;8311;50.158;8.642;2024-03-06T11:48:27;21.30;46.90
16404;DHT22;8311;50.158;8.642;2024-03-06T11:51:21;21.30;46.90
16404;DHT22;8311;50.158;8.642;2024-03-06T11:54:15;21.30;46.90
16404;DHT22;8311;50.158;8.642;2024-03-06T11:57:10;21.30;46.90
16404;DHT22;8311;50.158;8.642;2024-03-06T12:00:09;21.30;46.90
16404;DHT22;8311;50.158;8.642;2024-03-06T12:03:05;21.30;46.90
16404;DHT22;8311;50.158;8.642;2024-03-06T12:05:59;21.30;46.90
16404;DHT22;8311;50.158;8.642;2024-03-06T12:08:55;21.30;46.90
16404;DHT22;8311;50.158;8.642;2024-03-06T12:11:48;21.30;46.90
16404;DHT22;8311;50.158;8.642;2024-03-06T12:14:41;21.40;46.90
16404;DHT22;8311;50.158;8.642;2024-03-06T12:17:42;21.40;46.80
16404;DHT22;8311;50.158;8.642;2024-03-06T12:20:42;21.40;46.80
16404;DHT22;8311;50.158;8.642;2024-03-06T12:23:39;21.50;46.90
16404;DHT22;8311;50.158;8.642;2024-03-06T12:26:32;21.50;46.80
16404;DHT22;8311;50.158;8.642;2024-03-06T12:29:28;21.40;46.70
16404;DHT22;8311;50.158;8.642;2024-03-06T12:32:23;21.40;46.70
16404;DHT22;8311;50.158;8.642;2024-03-06T12:35:24;21.40;46.70
16404;DHT22;8311;50.158;8.642;2024-03-06T12:38:18;21.40;46.70
16404;DHT22;8311;50.158;8.642;2024-03-06T12:41:12;21.40;46.80
16404;DHT22;8311;50.158;8.642;2024-03-06T12:44:06;21.40;46.70
16404;DHT22;8311;50.158;8.642;2024-03-06T12:47:00;21.30;46.70
16404;DHT22;8311;50.158;8.642;2024-03-06T12:49:54;21.30;46.70
16404;DHT22;8311;50.158;8.642;2024-03-06T12:52:47;21.30;46.70
16404;DHT22;8311;50.158;8.642;2024-03-06T12:55:40;21.20;46.70
16404;DHT22;8311;50.158;8.642;2024-03-06T12:58:36;21.30;46.80
16404;DHT22;8311;50.158;8.642;2024-03-06T13:01:31;21.20;46.80
16404;DHT22;8311;50.158;8.642;2024-03-06T13:04:24;21.20;46.80
16404;DHT22;8311;50.158;8.642;2024-03-06T13:07:17;21.20;46.80
16404;DHT22;8311;50.158;8.642;2024-03-06T13:10:10;21.20;46.80
16404;DHT22;8311;50.158;8.642;2024-03-06T13:13:05;21.20;46.80
16404;DHT22;8311;50.158;8.642;2024-03-06T13:16:00;21.20;46.80
16404;DHT22;8311;50.158;8.642;2024-03-06T13:18:58;21.20;46.80
16404;DHT22;8311;50.158;8.642;2024-03-06T13:21:53;21.20;46.90
16404;DHT22;8311;50.158;8.642;2024-03-06T13:24:46;21.20;46.90
16404;DHT22;8311;50.158;8.642;2024-03-06T13:27:42;21.20;46.90
16404;DHT22;8311;50.158;8.642;2024-03-06T13:30:35;21.20;46.90
16404;DHT22;8311;50.158;8.642;2024-03-06T13:33:31;21.10;46.90
16404;DHT22;8311;50.158;8.642;2024-03-06T13:36:25;21.10;46.90
16404;DHT22;8311;50.158;8.642;2024-03-06T13:39:18;21.10;46.90
16404;DHT22;8311;50.158;8.642;2024-03-06T13:42:12;21.10;46.90
16404;DHT22;8311;50.158;8.642;2024-03-06T13:45:06;21.10;47.00
16404;DHT22;8311;50.158;8.642;2024-03-06T13:48:13;21.10;46.90
16404;DHT22;8311;50.158;8.642;2024-03-06T13:51:08;21.10;47.00
16404;DHT22;8311;50.158;8.642;2024-03-06T13:54:01;21.10;47.00
16404;DHT22;8311;50.158;8.642;2024-03-06T13:56:54;21.10;47.00
16404;DHT22;8311;50.158;8.642;2024-03-06T13:59:54;21.10;47.00
16404;DHT22;8311;50.158;8.642;2024-03-06T14:02:47;21.10;47.00
16404;DHT22;8311;50.158;8.642;2024-03-06T14:05:41;21.10;47.00
16404;DHT22;8311;50.158;8.642;2024-03-06T14:08:36;21.10;47.00
16404;DHT22;8311;50.158;8.642;2024-03-06T14:11:33;21.10;47.00
16404;DHT22;8311;50.158;8.642;2024-03-06T14:14:27;21.10;47.00
16404;DHT22;8311;50.158;8.642;2024-03-06T14:17:21;21.10;47.00
16404;DHT22;8311;50.158;8.642;2024-03-06T14:20:14;21.10;47.00
16404;DHT22;8311;50.158;8.642;2024-03-06T14:23:09;21.10;47.10
16404;DHT22;8311;50.158;8.642;2024-03-06T14:26:04;21.10;47.10
16404;DHT22;8311;50.158;8.642;2024-03-06T14:28:58;21.00;47.10
16404;DHT22;8311;50.158;8.642;2024-03-06T14:31:51;21.00;47.00
16404;DHT22;8311;50.158;8.642;2024-03-06T14:34:45;21.00;47.00
16404;DHT22;8311;50.158;8.642;2024-03-06T14:37:39;21.00;47.10
16404;DHT22;8311;50.158;8.642;2024-03-06T14:40:35;21.00;47.10
16404;DHT22;8311;50.158;8.642;2024-03-06T14:43:29;21.00;47.10
16404;DHT22;8311;50.158;8.642;2024-03-06T14:46:23;21.00;47.10
16404;DHT22;8311;50.158;8.642;2024-03-06T14:49:16;21.00;47.10
16404;DHT22;8311;50.158;8.642;2024-03-06T14:52:09;21.00;47.10
16404;DHT22;8311;50.158;8.642;2024-03-06T14:55:02;21.00;47.10
16404;DHT22;8311;50.158;8.642;2024-03-06T14:57:56;21.00;47.10
16404;DHT22;8311;50.158;8.642;2024-03-06T15:00:50;21.00;47.10
16404;DHT22;8311;50.158;8.642;2024-03-06T15:03:44;21.00;47.10
16404;DHT22;8311;50.158;8.642;2024-03-06T15:06:38;21.00;47.10
16404;DHT22;8311;50.158;8.642;2024-03-06T15:09:31;21.00;47.10
16404;DHT22;8311;50.158;8.642;2024-03-06T15:12:24;21.00;47.10
16404;DHT22;8311;50.158;8.642;2024-03-06T15:15:17;21.00;47.10
16404;DHT22;8311;50.158;8.642;2024-03-06T15:18:12;21.00;47.20
16404;DHT22;8311;50.158;8.642;2024-03-06T15:21:07;21.00;47.10
16404;DHT22;8311;50.158;8.642;2024-03-06T15:24:00;21.00;47.10
16404;DHT22;8311;50.158;8.642;2024-03-06T15:26:57;21.00;47.20
16404;DHT22;8311;50.158;8.642;2024-03-06T15:29:50;21.00;47.10
16404;DHT22;8311;50.158;8.642;2024-03-06T15:32:43;21.00;47.20
16404;DHT22;8311;50.158;8.642;2024-03-06T15:35:38;21.00;47.20
16404;DHT22;8311;50.158;8.642;2024-03-06T15:38:34;21.00;47.20
16404;DHT22;8311;50.158;8.642;2024-03-06T15:41:28;21.00;47.20
16404;DHT22;8311;50.158;8.642;2024-03-06T15:44:21;20.90;47.10
16404;DHT22;8311;50.158;8.642;2024-03-06T15:47:15;21.00;47.20
16404;DHT22;8311;50.158;8.642;2024-03-06T15:50:09;21.00;47.20
16404;DHT22;8311;50.158;8.642;2024-03-06T15:53:04;21.00;47.20
16404;DHT22;8311;50.158;8.642;2024-03-06T15:55:59;21.00;47.20
16404;DHT22;8311;50.158;8.642;2024-03-06T15:58:52;20.90;47.10
16404;DHT22;8311;50.158;8.642;2024-03-06T16:01:46;21.00;47.20
16404;DHT22;8311;50.158;8.642;2024-03-06T16:04:39;21.00;47.20
16404;DHT22;8311;50.158;8.642;2024-03-06T16:07:34;21.00;47.20
16404;DHT22;8311;50.158;8.642;2024-03-06T16:10:36;21.00;47.20
16404;DHT22;8311;50.158;8.642;2024-03-06T16:13:30;20.90;47.20
16404;DHT22;8311;50.158;8.642;2024-03-06T16:16:23;21.00;47.20
16404;DHT22;8311;50.158;8.642;2024-03-06T16:19:17;20.90;47.20
16404;DHT22;8311;50.158;8.642;2024-03-06T16:22:19;20.90;47.20
16404;DHT22;8311;50.158;8.642;2024-03-06T16:25:12;20.90;47.20
16404;DHT22;8311;50.158;8.642;2024-03-06T16:28:07;20.90;47.20
16404;DHT22;8311;50.158;8.642;2024-03-06T16:31:00;20.90;47.20
16404;DHT22;8311;50.158;8.642;2024-03-06T16:33:53;20.90;47.20
16404;DHT22;8311;50.158;8.642;2024-03-06T16:36:46;20.90;47.80
16404;DHT22;8311;50.158;8.642;2024-03-06T16:39:39;20.90;47.20
16404;DHT22;8311;50.158;8.642;2024-03-06T16:42:33;20.90;47.20
16404;DHT22;8311;50.158;8.642;2024-03-06T16:45:27;20.90;47.20
16404;DHT22;8311;50.158;8.642;2024-03-06T16:48:21;20.90;47.10
16404;DHT22;8311;50.158;8.642;2024-03-06T16:51:17;20.90;47.20
16404;DHT22;8311;50.158;8.642;2024-03-06T16:54:12;20.90;47.20
16404;DHT22;8311;50.158;8.642;2024-03-06T16:57:06;20.90;47.20
16404;DHT22;8311;50.158;8.642;2024-03-06T17:00:02;20.90;47.20
16404;DHT22;8311;50.158;8.642;2024-03-06T17:03:00;20.90;47.20
16404;DHT22;8311;50.158;8.642;2024-03-06T17:05:55;20.90;47.20
16404;DHT22;8311;50.158;8.642;2024-03-06T17:08:48;20.90;47.20
16404;DHT22;8311;50.158;8.642;2024-03-06T17:11:43;20.90;47.20
16404;DHT22;8311;50.158;8.642;2024-03-06T17:14:37;20.90;47.20
16404;DHT22;8311;50.158;8.642;2024-03-06T17:17:30;20.90;47.20
16404;DHT22;8311;50.158;8.642;2024-03-06T17:20:25;20.90;47.20
16404;DHT22;8311;50.158;8.642;2024-03-06T17:23:19;20.90;47.20
16404;DHT22;8311;50.158;8.642;2024-03-06T17:26:14;20.80;47.20
16404;DHT22;8311;50.158;8.642;2024-03-06T17:29:07;20.80;47.20
16404;DHT22;8311;50.158;8.642;2024-03-06T17:32:00;20.80;47.20
16404;DHT22;8311;50.158;8.642;2024-03-06T17:34:53;20.80;47.20
16404;DHT22;8311;50.158;8.642;2024-03-06T17:37:47;20.80;47.80
16404;DHT22;8311;50.158;8.642;2024-03-06T17:40:42;20.80;47.20
16404;DHT22;8311;50.158;8.642;2024-03-06T17:43:36;20.80;47.20
16404;DHT22;8311;50.158;8.642;2024-03-06T17:46:30;20.80;47.20
16404;DHT22;8311;50.158;8.642;2024-03-06T17:49:24;20.80;47.20
16404;DHT22;8311;50.158;8.642;2024-03-06T17:52:17;20.80;47.30
16404;DHT22;8311;50.158;8.642;2024-03-06T17:55:11;20.80;47.30
16404;DHT22;8311;50.158;8.642;2024-03-06T17:58:05;20.80;47.30
16404;DHT22;8311;50.158;8.642;2024-03-06T18:00:59;20.80;47.30
16404;DHT22;8311;50.158;8.642;2024-03-06T18:03:54;20.80;47.30
16404;DHT22;8311;50.158;8.642;2024-03-06T18:06:47;20.80;47.30
16404;DHT22;8311;50.158;8.642;2024-03-06T18:09:41;20.80;47.30
16404;DHT22;8311;50.158;8.642;2024-03-06T18:12:35;20.80;47.30
16404;DHT22;8311;50.158;8.642;2024-03-06T18:15:29;20.80;47.30
16404;DHT22;8311;50.158;8.642;2024-03-06T18:18:22;20.80;47.30
16404;DHT22;8311;50.158;8.642;2024-03-06T18:21:16;20.80;47.40
16404;DHT22;8311;50.158;8.642;2024-03-06T18:24:09;20.80;47.30
16404;DHT22;8311;50.158;8.642;2024-03-06T18:27:06;20.80;47.40
16404;DHT22;8311;50.158;8.642;2024-03-06T18:30:01;20.80;47.40
16404;DHT22;8311;50.158;8.642;2024-03-06T18:32:55;20.80;47.40
16404;DHT22;8311;50.158;8.642;2024-03-06T18:35:48;20.80;47.40
16404;DHT22;8311;50.158;8.642;2024-03-06T18:38:41;20.80;47.40
16404;DHT22;8311;50.158;8.642;2024-03-06T18:41:37;20.80;47.40
16404;DHT22;8311;50.158;8.642;2024-03-06T18:44:32;20.80;47.40